Pahala, Hawaii
Current Conditions -  °F | °C
As of 4:56 AM on Tuesday 21 Oct 2014 (Local Time) from PHSF Reporting Station
Clear Clear  
Wind Chill: 53°   Ceiling: Unl
Heat Index: 53°   Visibility: 10mi
Dew Point: 29°   Wind: 6mph
Humidity: 40%   Direction: 120°ESE
Pressure: 30.33"   Gusts: NA
Location:  19.2°N, 155.47°W
Report Text: PHSF 211456Z AUTO 12005KT 10SM CLR 11/M02 A3033 RMK AO2 SLP162 T01141019 57005 $
Loading
Personal Weather Stations






























Interactive Weather Map New forecast layout! Learn more

10-Day Weather Forecast

Advertisements
Track Severe Weather on mobile